createdAt,value
2023-01-29T00:01:44.831Z,21.75
2023-01-29T00:04:11.250Z,20.05
2023-01-29T00:06:37.837Z,20.52
2023-01-29T00:09:04.257Z,20.58
2023-01-29T00:11:31.946Z,20.88
2023-01-29T00:13:58.709Z,21.63
2023-01-29T00:16:25.111Z,21.73
2023-01-29T00:18:51.513Z,22.02
2023-01-29T00:21:20.088Z,22.25
2023-01-29T00:23:47.063Z,22.73
2023-01-29T00:26:14.326Z,21.73
2023-01-29T00:28:44.137Z,22.83
2023-01-29T00:31:16.923Z,22.27
2023-01-29T00:33:43.685Z,22.05
2023-01-29T00:36:12.872Z,21.90
2023-01-29T00:38:39.671Z,22.02
2023-01-29T00:41:33.524Z,21.00
2023-01-29T00:44:19.867Z,20.27
2023-01-29T00:46:46.481Z,20.83
2023-01-29T00:49:12.959Z,21.00
2023-01-29T00:51:39.527Z,19.35
2023-01-29T00:54:09.502Z,19.10
2023-01-29T00:56:37.318Z,19.35
2023-01-29T00:59:04.521Z,19.85
2023-01-29T01:01:50.140Z,19.80
2023-01-29T01:04:16.622Z,18.20
2023-01-29T01:06:43.563Z,19.85
2023-01-29T01:09:29.213Z,19.88
2023-01-29T01:11:55.591Z,17.45
2023-01-29T01:14:22.363Z,17.13
2023-01-29T01:16:49.557Z,16.83
2023-01-29T01:19:16.351Z,17.73
2023-01-29T01:21:48.063Z,17.42
2023-01-29T01:24:14.988Z,15.25
2023-01-29T01:26:41.435Z,17.75
2023-01-29T01:29:07.845Z,16.88
2023-01-29T01:31:34.265Z,16.65
2023-01-29T01:34:00.858Z,16.52
2023-01-29T01:36:27.327Z,15.90
2023-01-29T01:38:54.785Z,16.67
2023-01-29T01:41:22.968Z,17.48
2023-01-29T01:43:53.949Z,15.77
2023-01-29T01:46:21.872Z,15.43
2023-01-29T01:48:55.901Z,15.48
2023-01-29T01:51:25.550Z,15.52
2023-01-29T01:54:14.115Z,16.00
2023-01-29T01:56:46.721Z,16.65
2023-01-29T01:59:15.949Z,15.77
2023-01-29T02:01:50.011Z,15.98
2023-01-29T02:04:44.273Z,16.00
2023-01-29T02:07:35.879Z,16.58
2023-01-29T02:10:16.703Z,16.60
2023-01-29T02:12:45.605Z,17.42
2023-01-29T02:15:13.184Z,16.38
2023-01-29T02:17:39.713Z,16.15
2023-01-29T02:20:18.481Z,16.42
2023-01-29T02:23:03.816Z,17.40
2023-01-29T02:26:10.381Z,15.02
2023-01-29T02:28:48.922Z,15.38
2023-01-29T02:31:31.437Z,15.85
2023-01-29T02:34:16.979Z,15.68
2023-01-29T02:36:50.423Z,17.63
2023-01-29T02:39:20.675Z,14.65
2023-01-29T02:42:00.718Z,16.25
2023-01-29T02:44:42.187Z,14.82
2023-01-29T02:47:20.180Z,16.23
2023-01-29T02:50:02.047Z,17.05
2023-01-29T02:52:52.697Z,17.83
2023-01-29T02:55:45.936Z,17.60
2023-01-29T02:58:33.026Z,17.55
2023-01-29T03:01:23.430Z,17.95
2023-01-29T03:03:55.064Z,17.30
2023-01-29T03:06:28.201Z,17.63
2023-01-29T03:09:07.819Z,17.88
2023-01-29T03:11:41.367Z,17.05
2023-01-29T03:14:18.845Z,16.63
2023-01-29T03:16:53.532Z,17.40
2023-01-29T03:19:34.410Z,17.05
2023-01-29T03:22:08.495Z,17.48
2023-01-29T03:25:03.308Z,18.80
2023-01-29T03:28:00.299Z,18.42
2023-01-29T03:30:57.837Z,17.67
2023-01-29T03:33:58.501Z,17.55
2023-01-29T03:36:45.827Z,17.75
2023-01-29T03:39:15.337Z,15.40
2023-01-29T03:41:53.612Z,16.30
2023-01-29T03:44:43.143Z,17.45
2023-01-29T03:47:54.066Z,17.33
2023-01-29T03:50:38.217Z,16.23
2023-01-29T03:53:19.543Z,14.57
2023-01-29T03:56:02.009Z,14.57
2023-01-29T03:58:39.590Z,15.68
2023-01-29T04:01:37.916Z,13.63
2023-01-29T04:04:27.926Z,14.90
2023-01-29T04:07:00.630Z,13.93
2023-01-29T04:09:43.653Z,14.77
2023-01-29T04:12:13.806Z,15.13
2023-01-29T04:14:42.580Z,15.68
2023-01-29T04:17:16.939Z,15.75
2023-01-29T04:19:50.189Z,14.65
2023-01-29T04:22:24.123Z,15.63
2023-01-29T04:24:51.252Z,15.88
2023-01-29T04:27:41.226Z,15.98
2023-01-29T04:30:20.165Z,13.93
2023-01-29T04:33:03.162Z,14.68
2023-01-29T04:35:41.194Z,15.35
2023-01-29T04:38:35.475Z,13.48
2023-01-29T04:41:19.134Z,15.70
2023-01-29T04:43:49.224Z,15.57
2023-01-29T04:46:21.427Z,15.00
2023-01-29T04:49:05.253Z,14.32
2023-01-29T04:51:43.401Z,14.43
2023-01-29T04:54:19.617Z,14.63
2023-01-29T04:56:56.759Z,14.77
2023-01-29T04:59:33.581Z,14.95
2023-01-29T05:02:02.434Z,14.32
2023-01-29T05:04:32.592Z,15.50
2023-01-29T05:07:04.175Z,15.38
2023-01-29T05:09:32.232Z,15.10
2023-01-29T05:12:00.286Z,15.93
2023-01-29T05:14:30.387Z,15.50
2023-01-29T05:16:59.919Z,16.20
2023-01-29T05:19:26.951Z,15.43
2023-01-29T05:21:54.104Z,15.75
2023-01-29T05:24:23.493Z,15.60
2023-01-29T05:27:11.083Z,16.40
2023-01-29T05:29:38.360Z,16.73
2023-01-29T05:32:04.938Z,16.55
2023-01-29T05:34:31.373Z,15.32
2023-01-29T05:36:57.805Z,17.58
2023-01-29T05:39:24.219Z,16.48
2023-01-29T05:41:50.680Z,17.63
2023-01-29T05:44:17.103Z,19.05
2023-01-29T05:46:44.015Z,16.42
2023-01-29T05:49:10.587Z,18.73
2023-01-29T05:51:37.015Z,17.95
2023-01-29T05:54:03.575Z,16.67
2023-01-29T05:56:29.997Z,17.98
2023-01-29T05:58:56.451Z,16.58
2023-01-29T06:01:25.310Z,16.60
2023-01-29T06:03:51.816Z,18.00
2023-01-29T06:06:18.192Z,18.02
2023-01-29T06:08:44.672Z,18.35
2023-01-29T06:11:12.987Z,19.20
2023-01-29T06:13:39.499Z,18.23
2023-01-29T06:16:10.003Z,17.80
2023-01-29T06:18:37.180Z,17.88
2023-01-29T06:21:05.624Z,17.60
2023-01-29T06:23:32.192Z,17.92
2023-01-29T06:26:03.295Z,16.70
2023-01-29T06:28:29.711Z,16.25
2023-01-29T06:31:20.953Z,16.20
2023-01-29T06:33:47.766Z,16.23
2023-01-29T06:36:14.134Z,16.45
2023-01-29T06:38:40.852Z,17.38
2023-01-29T06:41:12.413Z,16.67
2023-01-29T06:43:39.547Z,17.45
2023-01-29T06:46:08.118Z,15.32
2023-01-29T06:48:35.191Z,15.35
2023-01-29T06:51:06.864Z,16.23
2023-01-29T06:53:34.651Z,14.75
2023-01-29T06:56:01.108Z,16.35
2023-01-29T06:58:27.473Z,14.88
2023-01-29T07:00:53.960Z,15.65
2023-01-29T07:03:20.406Z,16.48
2023-01-29T07:05:53.781Z,15.10
2023-01-29T07:08:22.593Z,15.63
2023-01-29T07:10:50.434Z,15.32
2023-01-29T07:13:17.253Z,16.05
2023-01-29T07:15:44.443Z,14.63
2023-01-29T07:18:13.700Z,13.95
2023-01-29T07:20:41.247Z,14.60
2023-01-29T07:23:11.996Z,15.57
2023-01-29T07:25:39.456Z,15.25
2023-01-29T07:28:06.785Z,14.93
2023-01-29T07:30:33.649Z,16.35
2023-01-29T07:33:08.116Z,16.88
2023-01-29T07:35:39.484Z,15.43
2023-01-29T07:38:06.815Z,16.60
2023-01-29T07:40:33.607Z,17.88
2023-01-29T07:43:01.080Z,17.38
2023-01-29T07:45:28.698Z,18.10
2023-01-29T07:47:56.173Z,17.00
2023-01-29T07:50:24.176Z,18.02
2023-01-29T07:52:50.957Z,18.75
2023-01-29T07:55:18.300Z,18.60
2023-01-29T07:57:44.750Z,19.92
2023-01-29T08:00:12.063Z,19.85
2023-01-29T08:02:42.497Z,20.58
2023-01-29T08:05:09.155Z,21.73
2023-01-29T08:07:35.534Z,20.25
2023-01-29T08:10:02.156Z,21.88
2023-01-29T08:12:28.514Z,20.63
2023-01-29T08:14:55.043Z,19.48
2023-01-29T08:17:21.410Z,21.52
2023-01-29T08:19:47.893Z,22.63
2023-01-29T08:22:16.470Z,21.90
2023-01-29T08:24:53.721Z,22.73
2023-01-29T08:27:26.513Z,22.85
2023-01-29T08:29:53.027Z,25.17
2023-01-29T08:32:19.408Z,25.50
2023-01-29T08:34:46.005Z,24.77
2023-01-29T08:37:12.374Z,24.75
2023-01-29T08:39:38.808Z,23.40
2023-01-29T08:42:05.284Z,25.13
2023-01-29T08:44:31.667Z,26.20
2023-01-29T08:46:58.147Z,26.85
2023-01-29T08:49:24.556Z,28.38
2023-01-29T08:51:54.662Z,27.23
2023-01-29T08:54:21.127Z,29.88
2023-01-29T08:56:47.508Z,27.65
2023-01-29T08:59:14.205Z,28.33
2023-01-29T09:01:40.757Z,28.05
2023-01-29T09:04:07.500Z,30.40
2023-01-29T09:06:34.005Z,30.00
2023-01-29T09:09:00.615Z,30.92
2023-01-29T09:11:27.084Z,31.50
2023-01-29T09:13:53.535Z,32.20
2023-01-29T09:16:20.250Z,34.20
2023-01-29T09:18:46.664Z,34.15
2023-01-29T09:21:13.145Z,32.97
2023-01-29T09:23:39.636Z,36.35
2023-01-29T09:26:08.127Z,35.03
2023-01-29T09:28:34.563Z,36.25
2023-01-29T09:31:02.913Z,38.90
2023-01-29T09:33:30.920Z,38.25
2023-01-29T09:35:57.370Z,36.08
2023-01-29T09:38:23.765Z,39.60
2023-01-29T09:41:05.518Z,38.85
2023-01-29T09:43:56.404Z,36.22
2023-01-29T09:46:38.351Z,37.78
2023-01-29T09:49:18.762Z,38.28
2023-01-29T09:51:50.779Z,38.22
2023-01-29T09:54:54.845Z,37.85
2023-01-29T09:57:33.144Z,37.03
2023-01-29T09:59:59.646Z,38.80
2023-01-29T10:02:50.525Z,40.35
2023-01-29T10:05:34.743Z,43.58
2023-01-29T10:08:17.662Z,44.17
2023-01-29T10:10:50.552Z,44.25
2023-01-29T10:13:32.762Z,45.67
2023-01-29T10:16:17.048Z,42.67
2023-01-29T10:19:04.449Z,43.08
2023-01-29T10:21:56.180Z,44.20
2023-01-29T10:24:41.641Z,46.30
2023-01-29T10:27:16.494Z,44.15
2023-01-29T10:29:44.637Z,46.97
2023-01-29T10:32:19.824Z,47.28
2023-01-29T10:34:59.847Z,48.15
2023-01-29T10:37:34.784Z,47.65
2023-01-29T10:40:02.160Z,44.95
2023-01-29T10:42:50.557Z,42.67
2023-01-29T10:45:38.616Z,44.40
2023-01-29T10:48:33.923Z,45.45
2023-01-29T10:51:20.982Z,45.50
2023-01-29T10:54:15.991Z,41.03
2023-01-29T10:56:51.344Z,41.83
2023-01-29T10:59:43.520Z,42.05
2023-01-29T11:02:19.499Z,44.40
2023-01-29T11:04:46.245Z,41.05
2023-01-29T11:07:15.053Z,41.92
2023-01-29T11:09:54.977Z,41.92
2023-01-29T11:12:27.199Z,40.13
2023-01-29T11:15:05.034Z,42.67
2023-01-29T11:17:31.468Z,38.20
2023-01-29T11:19:57.816Z,36.83
2023-01-29T11:22:29.703Z,37.88
2023-01-29T11:25:20.028Z,37.08
2023-01-29T11:27:52.967Z,37.72
2023-01-29T11:30:30.430Z,38.40
2023-01-29T11:33:12.568Z,36.10
2023-01-29T11:35:38.979Z,35.90
2023-01-29T11:38:27.766Z,35.67
2023-01-29T11:41:06.084Z,35.13
2023-01-29T11:43:33.489Z,31.95
2023-01-29T11:46:05.220Z,33.67
2023-01-29T11:48:45.580Z,32.38
2023-01-29T11:51:22.399Z,33.72
2023-01-29T11:53:56.554Z,32.75
2023-01-29T11:56:34.005Z,33.80
2023-01-29T11:59:04.403Z,32.40
2023-01-29T12:01:36.188Z,31.95
2023-01-29T12:04:04.203Z,31.48
2023-01-29T12:06:47.657Z,31.08
2023-01-29T12:09:21.366Z,30.50
2023-01-29T12:11:48.136Z,30.20
2023-01-29T12:14:34.041Z,31.70
2023-01-29T12:17:15.229Z,31.67
2023-01-29T12:19:58.465Z,32.63
2023-01-29T12:22:53.673Z,31.52
2023-01-29T12:25:36.632Z,32.55
2023-01-29T12:28:19.798Z,31.85
2023-01-29T12:31:13.478Z,33.97
2023-01-29T12:34:06.322Z,31.65
2023-01-29T12:36:53.144Z,33.58
2023-01-29T12:39:20.297Z,31.20
2023-01-29T12:41:54.702Z,32.67
2023-01-29T12:44:29.013Z,32.63
2023-01-29T12:47:00.323Z,32.15
2023-01-29T12:49:32.558Z,34.25
2023-01-29T12:52:03.297Z,33.25
2023-01-29T12:54:49.983Z,30.77
2023-01-29T12:57:34.438Z,33.50
2023-01-29T13:00:16.785Z,28.60
2023-01-29T13:03:06.715Z,31.20
2023-01-29T13:05:39.158Z,29.38
2023-01-29T13:08:23.790Z,28.48
2023-01-29T13:10:52.768Z,31.13
2023-01-29T13:13:31.610Z,28.40
2023-01-29T13:16:00.973Z,30.08
2023-01-29T13:18:43.614Z,28.75
2023-01-29T13:21:24.354Z,29.33
2023-01-29T13:24:03.262Z,28.88
2023-01-29T13:26:30.796Z,29.73
2023-01-29T13:28:58.024Z,29.63
2023-01-29T13:31:30.001Z,29.40
2023-01-29T13:34:07.572Z,28.00
2023-01-29T13:36:36.380Z,28.40
2023-01-29T13:39:10.162Z,27.90
2023-01-29T13:41:42.392Z,27.35
2023-01-29T13:44:21.980Z,29.20
2023-01-29T13:46:53.459Z,28.67
2023-01-29T13:49:40.202Z,28.35
2023-01-29T13:52:39.626Z,28.23
2023-01-29T13:55:15.305Z,28.13
2023-01-29T13:57:44.687Z,28.50
2023-01-29T14:00:30.807Z,28.65
2023-01-29T14:03:00.218Z,33.58
2023-01-29T14:05:29.639Z,31.17
2023-01-29T14:08:03.451Z,32.95
2023-01-29T14:10:32.158Z,32.72
2023-01-29T14:13:04.536Z,37.08
2023-01-29T14:15:32.486Z,32.85
2023-01-29T14:18:19.402Z,37.92
2023-01-29T14:20:51.527Z,36.17
2023-01-29T14:23:28.402Z,38.00
2023-01-29T14:25:55.491Z,31.02
2023-01-29T14:28:28.816Z,32.17
2023-01-29T14:30:55.774Z,32.13
2023-01-29T14:33:27.708Z,33.95
2023-01-29T14:35:56.812Z,33.47
2023-01-29T14:38:25.414Z,34.42
2023-01-29T14:41:04.356Z,31.75
2023-01-29T14:43:30.733Z,33.53
2023-01-29T14:46:35.346Z,30.15
2023-01-29T14:49:02.495Z,32.72
2023-01-29T14:51:36.584Z,30.38
2023-01-29T14:54:14.551Z,32.35
2023-01-29T14:56:50.969Z,31.77
2023-01-29T14:59:28.989Z,32.53
2023-01-29T15:01:58.173Z,31.17
2023-01-29T15:04:33.429Z,32.75
2023-01-29T15:07:05.698Z,33.17
2023-01-29T15:10:07.893Z,34.50
2023-01-29T15:12:50.487Z,33.00
2023-01-29T15:15:26.590Z,33.50
2023-01-29T15:18:02.177Z,35.67
2023-01-29T15:20:37.308Z,34.97
2023-01-29T15:23:04.989Z,34.05
2023-01-29T15:25:36.763Z,34.67
2023-01-29T15:28:08.529Z,35.20
2023-01-29T15:30:36.047Z,34.60
2023-01-29T15:33:03.408Z,37.38
2023-01-29T15:35:31.144Z,36.25
2023-01-29T15:38:17.147Z,37.65
2023-01-29T15:41:04.524Z,35.33
2023-01-29T15:43:36.551Z,37.53
2023-01-29T15:46:09.736Z,36.60
2023-01-29T15:48:43.442Z,37.40
2023-01-29T15:51:31.337Z,36.90
2023-01-29T15:54:02.510Z,37.67
2023-01-29T15:56:48.013Z,37.65
2023-01-29T15:59:34.525Z,36.28
2023-01-29T16:02:42.477Z,33.90
2023-01-29T16:05:22.881Z,32.10
2023-01-29T16:07:50.945Z,34.45
2023-01-29T16:10:24.399Z,35.13
2023-01-29T16:12:52.203Z,32.72
2023-01-29T16:15:29.908Z,34.65
2023-01-29T16:17:57.348Z,33.38
2023-01-29T16:20:34.895Z,35.38
2023-01-29T16:23:01.308Z,34.85
2023-01-29T16:25:30.156Z,41.90
2023-01-29T16:27:57.580Z,30.85
2023-01-29T16:30:28.499Z,41.33
2023-01-29T16:33:01.936Z,38.97
2023-01-29T16:35:28.533Z,35.08
2023-01-29T16:38:02.865Z,32.25
2023-01-29T16:40:35.366Z,35.75
2023-01-29T16:43:16.920Z,33.65
2023-01-29T16:45:43.370Z,32.53
2023-01-29T16:48:32.811Z,37.60
2023-01-29T16:51:51.680Z,37.80
2023-01-29T16:54:23.770Z,50.83
2023-01-29T16:56:54.356Z,38.42
2023-01-29T16:59:27.612Z,32.60
2023-01-29T17:01:55.930Z,39.72
2023-01-29T17:04:22.589Z,31.88
2023-01-29T17:06:54.893Z,32.15
2023-01-29T17:09:28.990Z,32.00
2023-01-29T17:11:58.813Z,32.10
2023-01-29T17:14:26.281Z,30.88
2023-01-29T17:17:03.018Z,30.60
2023-01-29T17:19:30.112Z,29.33
2023-01-29T17:21:58.918Z,31.23
2023-01-29T17:24:25.852Z,31.08
2023-01-29T17:26:54.029Z,29.55
2023-01-29T17:29:28.369Z,31.33
2023-01-29T17:31:56.089Z,28.23
2023-01-29T17:34:23.909Z,31.55
2023-01-29T17:36:50.360Z,28.48
2023-01-29T17:39:22.124Z,27.58
2023-01-29T17:41:57.656Z,28.23
2023-01-29T17:44:27.596Z,28.98
2023-01-29T17:46:54.365Z,30.02
2023-01-29T17:49:25.567Z,30.65
2023-01-29T17:51:53.340Z,30.15
2023-01-29T17:54:20.088Z,33.03
2023-01-29T17:56:46.942Z,33.38
2023-01-29T17:59:19.739Z,34.28
2023-01-29T18:01:47.449Z,35.83
2023-01-29T18:04:14.585Z,34.92
2023-01-29T18:06:42.475Z,34.50
2023-01-29T18:09:13.792Z,34.90
2023-01-29T18:11:41.327Z,31.98
2023-01-29T18:14:13.975Z,34.10
2023-01-29T18:16:42.059Z,31.52
2023-01-29T18:19:20.841Z,31.38
2023-01-29T18:21:48.097Z,34.53
2023-01-29T18:24:14.768Z,31.70
2023-01-29T18:26:41.269Z,29.80
2023-01-29T18:29:08.136Z,31.42
2023-01-29T18:31:35.381Z,31.65
2023-01-29T18:34:01.799Z,31.63
2023-01-29T18:36:28.219Z,31.35
2023-01-29T18:38:55.008Z,32.65
2023-01-29T18:41:21.773Z,34.95
2023-01-29T18:43:48.189Z,32.00
2023-01-29T18:46:14.851Z,31.13
2023-01-29T18:48:42.789Z,32.33
2023-01-29T18:51:09.472Z,33.50
2023-01-29T18:53:35.839Z,32.05
2023-01-29T18:56:05.029Z,31.45
2023-01-29T18:58:35.697Z,31.75
2023-01-29T19:01:09.300Z,30.77
2023-01-29T19:03:36.336Z,31.67
2023-01-29T19:06:04.246Z,33.00
2023-01-29T19:08:31.324Z,33.90
2023-01-29T19:11:01.961Z,33.58
2023-01-29T19:13:32.152Z,34.90
2023-01-29T19:15:58.864Z,34.47
2023-01-29T19:18:28.024Z,35.28
2023-01-29T19:20:54.914Z,36.47
2023-01-29T19:23:22.000Z,36.95
2023-01-29T19:25:48.374Z,41.17
2023-01-29T19:28:15.160Z,35.85
2023-01-29T19:30:41.695Z,38.25
2023-01-29T19:33:09.352Z,37.83
2023-01-29T19:35:35.821Z,39.55
2023-01-29T19:38:02.223Z,39.42
2023-01-29T19:40:28.607Z,40.97
2023-01-29T19:42:56.066Z,41.67
2023-01-29T19:45:49.032Z,38.30
2023-01-29T19:48:13.363Z,45.13
2023-01-29T19:50:39.855Z,43.00
2023-01-29T19:53:06.338Z,42.10
2023-01-29T19:55:32.730Z,43.67
2023-01-29T19:57:59.428Z,42.75
2023-01-29T20:00:25.868Z,44.90
2023-01-29T20:02:52.320Z,41.85
2023-01-29T20:05:20.284Z,42.53
2023-01-29T20:07:47.007Z,44.58
2023-01-29T20:10:17.310Z,44.28
2023-01-29T20:12:45.170Z,42.53
2023-01-29T20:15:15.155Z,43.50
2023-01-29T20:17:41.852Z,45.50
2023-01-29T20:20:09.143Z,44.53
2023-01-29T20:22:35.654Z,42.97
2023-01-29T20:25:02.161Z,43.90
2023-01-29T20:27:28.617Z,47.22
2023-01-29T20:29:54.960Z,43.67
2023-01-29T20:32:21.632Z,45.30
2023-01-29T20:34:51.854Z,48.33
2023-01-29T20:37:19.239Z,45.35
2023-01-29T20:39:45.633Z,43.63
2023-01-29T20:42:12.011Z,44.03
2023-01-29T20:44:38.373Z,44.35
2023-01-29T20:47:04.767Z,47.47
2023-01-29T20:49:31.662Z,45.45
2023-01-29T20:51:58.101Z,45.70
2023-01-29T20:54:24.502Z,42.58
2023-01-29T20:56:50.856Z,45.53
2023-01-29T20:59:17.916Z,47.78
2023-01-29T21:01:45.017Z,44.45
2023-01-29T21:04:11.527Z,45.20
2023-01-29T21:06:37.902Z,43.00
2023-01-29T21:09:04.472Z,43.72
2023-01-29T21:11:31.537Z,42.50
2023-01-29T21:13:58.138Z,44.83
2023-01-29T21:16:26.102Z,47.20
2023-01-29T21:19:00.060Z,45.72
2023-01-29T21:21:27.625Z,43.83
2023-01-29T21:23:54.694Z,44.20
2023-01-29T21:26:23.063Z,43.65
2023-01-29T21:28:49.553Z,43.75
2023-01-29T21:31:17.434Z,45.72
2023-01-29T21:33:44.680Z,42.60
2023-01-29T21:36:11.627Z,44.67
2023-01-29T21:38:38.768Z,42.55
2023-01-29T21:41:09.089Z,43.50
2023-01-29T21:43:36.031Z,44.80
2023-01-29T21:46:05.004Z,42.70
2023-01-29T21:48:31.898Z,44.35
2023-01-29T21:50:58.242Z,43.28
2023-01-29T21:53:24.734Z,41.53
2023-01-29T21:55:51.703Z,42.78
2023-01-29T21:58:19.900Z,41.38
2023-01-29T22:00:48.658Z,40.10
2023-01-29T22:03:15.205Z,39.65
2023-01-29T22:05:41.632Z,39.28
2023-01-29T22:08:08.071Z,40.35
2023-01-29T22:10:36.443Z,44.28
2023-01-29T22:13:03.584Z,39.70
2023-01-29T22:15:30.126Z,39.25
2023-01-29T22:17:56.482Z,41.20
2023-01-29T22:20:29.890Z,44.63
2023-01-29T22:22:58.759Z,44.28
2023-01-29T22:25:25.301Z,47.35
2023-01-29T22:27:51.668Z,45.17
2023-01-29T22:30:19.038Z,44.30
2023-01-29T22:32:45.571Z,46.05
2023-01-29T22:35:11.987Z,45.53
2023-01-29T22:37:38.385Z,44.40
2023-01-29T22:40:05.330Z,45.30
2023-01-29T22:42:31.842Z,46.17
2023-01-29T22:44:58.334Z,46.08
2023-01-29T22:47:24.827Z,44.25
2023-01-29T22:49:52.412Z,44.03
2023-01-29T22:52:22.489Z,44.08
2023-01-29T22:54:49.077Z,44.25
2023-01-29T22:57:15.613Z,46.17
2023-01-29T22:59:42.027Z,48.35
2023-01-29T23:02:08.892Z,48.08
2023-01-29T23:04:35.491Z,46.53
2023-01-29T23:07:03.041Z,47.30
2023-01-29T23:09:29.453Z,49.78
2023-01-29T23:11:55.826Z,45.05
2023-01-29T23:14:22.269Z,44.92
2023-01-29T23:16:48.633Z,46.35
2023-01-29T23:19:15.027Z,46.28
2023-01-29T23:21:41.413Z,44.90
2023-01-29T23:24:08.603Z,45.13
2023-01-29T23:26:53.578Z,43.05
2023-01-29T23:29:20.307Z,42.78
2023-01-29T23:31:47.142Z,41.67
2023-01-29T23:34:14.152Z,40.90
2023-01-29T23:36:41.005Z,40.92
2023-01-29T23:39:07.641Z,42.15
2023-01-29T23:41:34.219Z,39.75
2023-01-29T23:44:00.769Z,40.60
2023-01-29T23:46:27.173Z,38.95
2023-01-29T23:48:53.681Z,39.80
2023-01-29T23:51:20.177Z,41.05
2023-01-29T23:53:46.522Z,39.20
2023-01-29T23:56:13.250Z,39.17
2023-01-29T23:58:39.676Z,38.83
